Osaka International Airport
RJOO : now visible

Airfield :











YOU CAN JOIN US ON...

 
LOGIN :

Register | Disclaimer

   EN    FR    IT 

 









Legend :    VFR   Marginal VFR   IFR   Intensive IFR   Very Intensive IFR
Visi :
Ceiling :
>= 8 km
>= 3000ft
5 to 8 km
1000 to 3000 ft
1500m to 5 km
500 to 1000 ft
800 to 1500m
200 to 500 ft
< 800m
< 200 ft
Symbols :   Thunderstorms  Fog  Heavy snow  Heavy precipitations  Wind > 20 kt







- Airport Elevation : 50 ft
- IATA code : ITM


RJOO - Osaka International

EXPIRED METARs :
  • 221100Z 34007KT 310V030 9999 FEW035 22/05 Q1007 RMK 1CU035 A2975
  • 221000Z 03007KT 330V060 9999 FEW035 23/07 Q1006

TAF TAF RJOO
Valid from the 22 at 12:00 until the 23 at 18:00 UTC


221107Z 2212/2318 32005KT 9999 FEW035
BECMG 2300/2303 22008KT
BECMG 2309/2312 32004KT
RJJJ FIR / Asia



MET'MAP, your aeronautical weather chart ! - Copyright ORBIFLY December 2007 - Disclaimer

ORBIFLY MET'MAP TEAM :

Programming & Development : Alexandra Zaïnal
Concept & Development : Baudouin d'Aumeries
Co-Development & Prog : Marc-Olivier Méhu
Technical & hardware support : Manuel Goepfert

Contact : metmap@orbifly.com




SOURCES & CREDITS :

   NOAA       Earth
Advisory